createdAt,value
2023-05-12T00:02:29.833Z,100975.81
2023-05-12T00:05:01.987Z,100979.89
2023-05-12T00:07:33.867Z,100973.97
2023-05-12T00:10:06.508Z,100972.61
2023-05-12T00:12:38.515Z,100970.38
2023-05-12T00:15:11.113Z,100972.34
2023-05-12T00:17:43.056Z,100972.47
2023-05-12T00:20:15.319Z,100980.04
2023-05-12T00:22:47.057Z,100978.95
2023-05-12T00:25:19.276Z,100976.24
2023-05-12T00:28:03.246Z,100974.98
2023-05-12T00:30:35.190Z,100976.00
2023-05-12T00:33:07.162Z,100979.69
2023-05-12T00:35:39.034Z,100980.58
2023-05-12T00:38:11.459Z,100976.99
2023-05-12T00:40:43.529Z,100981.20
2023-05-12T00:43:15.620Z,100982.68
2023-05-12T00:45:47.484Z,100984.12
2023-05-12T00:48:19.413Z,100981.50
2023-05-12T00:50:51.282Z,100991.28
2023-05-12T00:53:22.995Z,100992.48
2023-05-12T00:55:55.711Z,100989.28
2023-05-12T00:58:27.977Z,100983.34
2023-05-12T01:01:00.073Z,100987.65
2023-05-12T01:03:32.333Z,100990.61
2023-05-12T01:06:14.554Z,100995.31
2023-05-12T01:08:47.156Z,100992.47
2023-05-12T01:11:19.590Z,100998.73
2023-05-12T01:13:51.236Z,101001.69
2023-05-12T01:16:25.014Z,100997.13
2023-05-12T01:18:57.320Z,100999.08
2023-05-12T01:21:29.365Z,100996.96
2023-05-12T01:24:04.036Z,100998.95
2023-05-12T01:26:36.008Z,100995.36
2023-05-12T01:29:08.088Z,100992.87
2023-05-12T01:31:39.796Z,100993.00
2023-05-12T01:34:19.070Z,100993.74
2023-05-12T01:36:52.419Z,100995.58
2023-05-12T01:39:24.351Z,100996.06
2023-05-12T01:41:56.418Z,100994.34
2023-05-12T01:44:28.377Z,100999.41
2023-05-12T01:47:01.573Z,100994.45
2023-05-12T01:49:35.583Z,100993.70
2023-05-12T01:52:07.421Z,100996.41
2023-05-12T01:54:39.136Z,100990.25
2023-05-12T01:57:10.953Z,100987.55
2023-05-12T01:59:43.061Z,100990.85
2023-05-12T02:02:15.307Z,100993.56
2023-05-12T02:04:47.503Z,101000.59
2023-05-12T02:07:19.393Z,100997.41
2023-05-12T02:09:51.128Z,100997.05
2023-05-12T02:12:23.335Z,100998.30
2023-05-12T02:14:55.597Z,100998.17
2023-05-12T02:17:28.879Z,100995.58
2023-05-12T02:20:02.597Z,100998.30
2023-05-12T02:22:35.171Z,101010.27
2023-05-12T02:25:07.841Z,101007.33
2023-05-12T02:27:40.042Z,101009.05
2023-05-12T02:30:12.398Z,101008.94
2023-05-12T02:32:45.284Z,101007.09
2023-05-12T02:35:16.939Z,101011.89
2023-05-12T02:37:48.694Z,101002.91
2023-05-12T02:40:21.171Z,101007.45
2023-05-12T02:42:53.264Z,101003.02
2023-05-12T02:45:25.216Z,101005.34
2023-05-12T02:47:57.936Z,101005.34
2023-05-12T02:50:30.708Z,101006.22
2023-05-12T02:53:02.625Z,101008.70
2023-05-12T02:55:35.110Z,101011.30
2023-05-12T02:58:07.180Z,101009.46
2023-05-12T03:00:39.227Z,101007.47
2023-05-12T03:03:11.006Z,101014.78
2023-05-12T03:05:44.724Z,101018.11
2023-05-12T03:08:16.670Z,101012.44
2023-05-12T03:10:48.454Z,101018.27
2023-05-12T03:13:20.308Z,101019.00
2023-05-12T03:15:52.178Z,101022.47
2023-05-12T03:18:24.201Z,101020.88
2023-05-12T03:20:55.830Z,101025.44
2023-05-12T03:23:28.558Z,101023.24
2023-05-12T03:26:00.561Z,101024.13
2023-05-12T03:28:32.543Z,101031.41
2023-05-12T03:31:04.654Z,101025.85
2023-05-12T03:33:36.667Z,101031.33
2023-05-12T03:36:08.836Z,101027.28
2023-05-12T03:38:41.473Z,101037.64
2023-05-12T03:41:13.407Z,101035.43
2023-05-12T03:43:45.074Z,101035.30
2023-05-12T03:46:16.931Z,101040.62
2023-05-12T03:48:48.878Z,101026.77
2023-05-12T03:51:21.026Z,101027.52
2023-05-12T03:53:54.246Z,101038.14
2023-05-12T03:56:26.337Z,101045.08
2023-05-12T03:58:58.354Z,101045.30
2023-05-12T04:01:30.355Z,101047.75
2023-05-12T04:04:02.094Z,101044.28
2023-05-12T04:06:34.414Z,101041.16
2023-05-12T04:09:07.742Z,101044.36
2023-05-12T04:11:40.670Z,101043.83
2023-05-12T04:14:12.596Z,101044.69
2023-05-12T04:16:44.406Z,101041.42
2023-05-12T04:19:16.299Z,101044.34
2023-05-12T04:21:48.157Z,101043.36
2023-05-12T04:24:19.878Z,101034.65
2023-05-12T04:26:51.851Z,101039.14
2023-05-12T04:29:23.593Z,101035.75
2023-05-12T04:31:56.289Z,101040.02
2023-05-12T04:34:27.990Z,101040.09
2023-05-12T04:37:00.043Z,101045.09
2023-05-12T04:39:31.882Z,101048.73
2023-05-12T04:42:03.689Z,101047.53
2023-05-12T04:44:37.139Z,101050.84
2023-05-12T04:47:19.688Z,101047.70
2023-05-12T04:49:51.381Z,101051.11
2023-05-12T04:52:24.765Z,101048.19
2023-05-12T04:54:57.391Z,101054.53
2023-05-12T04:57:29.364Z,101056.93
2023-05-12T05:00:03.091Z,101051.54
2023-05-12T05:02:36.100Z,101053.58
2023-05-12T05:05:08.850Z,101054.31
2023-05-12T05:07:41.336Z,101053.69
2023-05-12T05:10:13.343Z,101051.47
2023-05-12T05:12:48.325Z,101051.27
2023-05-12T05:15:20.611Z,101060.57
2023-05-12T05:17:53.812Z,101055.72
2023-05-12T05:20:29.162Z,101057.05
2023-05-12T05:23:19.153Z,101052.61
2023-05-12T05:25:51.568Z,101058.41
2023-05-12T05:28:24.536Z,101059.19
2023-05-12T05:30:56.189Z,101066.70
2023-05-12T05:33:28.683Z,101062.27
2023-05-12T05:36:07.005Z,101060.25
2023-05-12T05:38:39.201Z,101062.84
2023-05-12T05:41:10.742Z,101060.80
2023-05-12T05:43:42.633Z,101066.22
2023-05-12T05:46:14.761Z,101068.62
2023-05-12T05:48:46.512Z,101066.98
2023-05-12T05:51:18.918Z,101060.03
2023-05-12T05:53:50.796Z,101058.58
2023-05-12T05:56:23.117Z,101059.02
2023-05-12T05:58:55.649Z,101058.58
2023-05-12T06:01:27.238Z,101060.54
2023-05-12T06:03:59.422Z,101067.16
2023-05-12T06:06:31.436Z,101063.84
2023-05-12T06:09:03.719Z,101067.72
2023-05-12T06:11:45.741Z,101070.73
2023-05-12T06:14:19.154Z,101064.70
2023-05-12T06:16:51.924Z,101066.78
2023-05-12T06:19:23.571Z,101060.83
2023-05-12T06:21:55.250Z,101066.50
2023-05-12T06:24:26.871Z,101066.87
2023-05-12T06:26:58.536Z,101066.06
2023-05-12T06:29:30.263Z,101069.84
2023-05-12T06:32:01.909Z,101077.58
2023-05-12T06:34:33.937Z,101074.66
2023-05-12T06:37:06.270Z,101075.18
2023-05-12T06:39:38.819Z,101074.48
2023-05-12T06:42:11.505Z,101073.78
2023-05-12T06:44:46.748Z,101075.14
2023-05-12T06:47:18.461Z,101076.17
2023-05-12T06:49:50.586Z,101079.23
2023-05-12T06:52:23.977Z,101068.55
2023-05-12T06:54:55.671Z,101070.06
2023-05-12T06:57:27.329Z,101067.41
2023-05-12T07:00:00.621Z,101073.06
2023-05-12T07:02:32.770Z,101074.58
2023-05-12T07:05:16.082Z,101070.36
2023-05-12T07:07:47.810Z,101068.00
2023-05-12T07:10:21.271Z,101071.13
2023-05-12T07:12:53.353Z,101066.77
2023-05-12T07:15:25.409Z,101071.42
2023-05-12T07:17:57.581Z,101078.06
2023-05-12T07:20:29.399Z,101071.09
2023-05-12T07:23:01.109Z,101074.41
2023-05-12T07:25:32.895Z,101066.67
2023-05-12T07:28:05.249Z,101070.34
2023-05-12T07:30:37.894Z,101069.61
2023-05-12T07:33:09.779Z,101073.24
2023-05-12T07:35:41.431Z,101067.06
2023-05-12T07:38:13.282Z,101071.90
2023-05-12T07:40:45.400Z,101073.23
2023-05-12T07:43:18.187Z,101067.81
2023-05-12T07:45:49.875Z,101065.55
2023-05-12T07:48:21.883Z,101067.65
2023-05-12T07:50:53.747Z,101063.86
2023-05-12T07:53:25.662Z,101070.27
2023-05-12T07:55:57.275Z,101067.19
2023-05-12T07:58:28.844Z,101063.25
2023-05-12T08:01:02.497Z,101063.30
2023-05-12T08:03:35.946Z,101067.98
2023-05-12T08:06:08.415Z,101062.20
2023-05-12T08:08:40.088Z,101063.19
2023-05-12T08:11:12.819Z,101066.02
2023-05-12T08:13:45.142Z,101055.98
2023-05-12T08:16:17.627Z,101059.05
2023-05-12T08:18:50.167Z,101057.40
2023-05-12T08:21:22.030Z,101058.43
2023-05-12T08:23:53.715Z,101061.87
2023-05-12T08:26:25.533Z,101058.39
2023-05-12T08:28:57.301Z,101056.73
2023-05-12T08:31:29.049Z,101054.08
2023-05-12T08:34:09.863Z,101048.87
2023-05-12T08:36:34.860Z,101047.78
2023-05-12T08:39:06.812Z,101052.88
2023-05-12T08:41:59.802Z,101051.05
2023-05-12T08:44:32.102Z,101046.25
2023-05-12T08:47:03.866Z,101041.13
2023-05-12T08:49:36.957Z,101044.63
2023-05-12T08:52:09.206Z,101034.65
2023-05-12T08:54:52.246Z,101028.06
2023-05-12T08:57:14.631Z,101036.98
2023-05-12T08:59:46.436Z,101036.77
2023-05-12T09:02:18.751Z,101041.21
2023-05-12T09:04:51.533Z,101041.48
2023-05-12T09:07:26.903Z,101027.39
2023-05-12T09:09:59.605Z,101025.75
2023-05-12T09:12:32.828Z,101029.66
2023-05-12T09:15:11.023Z,101030.22
2023-05-12T09:17:42.874Z,101028.84
2023-05-12T09:20:27.957Z,101021.23
2023-05-12T09:22:48.340Z,101020.52
2023-05-12T09:25:21.954Z,101013.41
2023-05-12T09:27:56.884Z,101021.98
2023-05-12T09:30:34.163Z,101023.90
2023-05-12T09:33:10.004Z,101016.04
2023-05-12T09:35:43.308Z,101016.36
2023-05-12T09:38:15.908Z,101019.19
2023-05-12T09:40:47.581Z,101010.64
2023-05-12T09:43:21.049Z,101003.28
2023-05-12T09:45:52.688Z,101010.23
2023-05-12T09:48:27.426Z,101003.48
2023-05-12T09:50:58.820Z,101006.59
2023-05-12T09:53:30.512Z,101002.53
2023-05-12T09:56:02.498Z,101001.34
2023-05-12T09:58:34.462Z,101000.84
2023-05-12T10:01:21.894Z,101000.72
2023-05-12T10:03:40.321Z,100994.29
2023-05-12T10:06:15.735Z,101003.80
2023-05-12T10:09:11.806Z,100999.80
2023-05-12T10:11:44.418Z,100991.58
2023-05-12T10:14:16.012Z,100993.61
2023-05-12T10:16:47.757Z,100993.70
2023-05-12T10:19:19.718Z,100989.08
2023-05-12T10:21:51.502Z,100993.47
2023-05-12T10:24:23.348Z,100989.89
2023-05-12T10:26:59.725Z,100987.76
2023-05-12T10:29:33.156Z,100983.67
2023-05-12T10:32:04.863Z,100978.38
2023-05-12T10:34:38.122Z,100975.67
2023-05-12T10:37:11.763Z,100981.25
2023-05-12T10:39:50.899Z,100974.63
2023-05-12T10:42:25.333Z,100975.67
2023-05-12T10:44:57.499Z,100969.30
2023-05-12T10:47:39.616Z,100967.66
2023-05-12T10:50:14.864Z,100965.33
2023-05-12T10:52:59.050Z,100962.08
2023-05-12T10:55:35.212Z,100969.37
2023-05-12T10:58:13.640Z,100967.88
2023-05-12T11:00:55.553Z,100958.66
2023-05-12T11:03:28.991Z,100962.02
2023-05-12T11:06:05.757Z,100961.25
2023-05-12T11:08:39.912Z,100959.97
2023-05-12T11:11:11.989Z,100964.05
2023-05-12T11:13:43.663Z,100964.97
2023-05-12T11:16:16.524Z,100965.45
2023-05-12T11:18:48.619Z,100964.50
2023-05-12T11:21:20.317Z,100968.20
2023-05-12T11:23:52.753Z,100961.84
2023-05-12T11:26:24.256Z,100961.83
2023-05-12T11:28:58.760Z,100965.52
2023-05-12T11:31:30.491Z,100968.59
2023-05-12T11:34:13.277Z,100956.23
2023-05-12T11:36:42.845Z,100960.06
2023-05-12T11:39:18.401Z,100956.73
2023-05-12T11:41:56.581Z,100956.91
2023-05-12T11:44:27.025Z,100951.08
2023-05-12T11:47:13.996Z,100946.59
2023-05-12T11:49:50.206Z,100940.09
2023-05-12T11:52:23.133Z,100943.31
2023-05-12T11:54:58.753Z,100943.20
2023-05-12T11:57:32.380Z,100945.78
2023-05-12T12:00:09.647Z,100939.17
2023-05-12T12:02:43.507Z,100953.73
2023-05-12T12:05:20.022Z,100948.96
2023-05-12T12:07:52.053Z,100942.47
2023-05-12T12:10:23.962Z,100933.18
2023-05-12T12:12:56.178Z,100939.41
2023-05-12T12:15:28.578Z,100944.05
2023-05-12T12:18:00.269Z,100929.60
2023-05-12T12:20:32.129Z,100930.00
2023-05-12T12:23:03.735Z,100926.95
2023-05-12T12:25:35.754Z,100924.06
2023-05-12T12:28:08.442Z,100923.03
2023-05-12T12:30:40.033Z,100921.39
2023-05-12T12:33:11.715Z,100919.38
2023-05-12T12:35:43.414Z,100914.61
2023-05-12T12:38:19.758Z,100917.39
2023-05-12T12:40:51.722Z,100915.94
2023-05-12T12:43:23.665Z,100915.61
2023-05-12T12:45:55.540Z,100913.45
2023-05-12T12:48:28.728Z,100918.61
2023-05-12T12:51:00.687Z,100912.36
2023-05-12T12:53:32.561Z,100915.03
2023-05-12T12:56:05.304Z,100907.06
2023-05-12T12:58:37.309Z,100912.73
2023-05-12T13:01:09.687Z,100906.30
2023-05-12T13:03:41.554Z,100905.41
2023-05-12T13:06:13.386Z,100901.41
2023-05-12T13:08:45.259Z,100894.76
2023-05-12T13:11:17.038Z,100900.90
2023-05-12T13:13:48.625Z,100897.42
2023-05-12T13:16:20.282Z,100899.61
2023-05-12T13:18:51.988Z,100896.59
2023-05-12T13:21:23.676Z,100894.25
2023-05-12T13:23:55.605Z,100895.75
2023-05-12T13:26:27.332Z,100892.95
2023-05-12T13:28:59.061Z,100895.83
2023-05-12T13:31:32.424Z,100898.52
2023-05-12T13:34:04.110Z,100892.66
2023-05-12T13:36:36.592Z,100895.28
2023-05-12T13:39:10.091Z,100887.84
2023-05-12T13:41:41.983Z,100891.99
2023-05-12T13:44:13.848Z,100884.44
2023-05-12T13:46:46.568Z,100880.69
2023-05-12T13:49:19.852Z,100880.33
2023-05-12T13:51:51.758Z,100876.74
2023-05-12T13:54:24.924Z,100874.13
2023-05-12T13:56:56.667Z,100871.05
2023-05-12T13:59:28.210Z,100871.59
2023-05-12T14:02:00.893Z,100871.63
2023-05-12T14:04:32.794Z,100872.89
2023-05-12T14:07:06.583Z,100869.59
2023-05-12T14:09:38.821Z,100868.74
2023-05-12T14:12:11.295Z,100863.70
2023-05-12T14:14:45.023Z,100860.98
2023-05-12T14:17:18.715Z,100860.46
2023-05-12T14:19:50.808Z,100854.58
2023-05-12T14:22:26.361Z,100850.89
2023-05-12T14:24:56.854Z,100859.47
2023-05-12T14:27:29.104Z,100858.15
2023-05-12T14:30:01.061Z,100859.78
2023-05-12T14:32:34.396Z,100859.59
2023-05-12T14:35:08.259Z,100865.44
2023-05-12T14:37:40.441Z,100863.58
2023-05-12T14:40:13.814Z,100858.62
2023-05-12T14:42:45.501Z,100862.18
2023-05-12T14:45:18.023Z,100856.03
2023-05-12T14:47:50.187Z,100862.00
2023-05-12T14:50:23.624Z,100855.53
2023-05-12T14:52:55.646Z,100861.97
2023-05-12T14:55:28.350Z,100858.07
2023-05-12T14:58:00.497Z,100860.34
2023-05-12T15:00:33.447Z,100859.20
2023-05-12T15:03:05.766Z,100858.44
2023-05-12T15:05:56.675Z,100860.52
2023-05-12T15:08:13.461Z,100853.29
2023-05-12T15:10:45.682Z,100857.94
2023-05-12T15:13:19.187Z,100858.17
2023-05-12T15:15:51.886Z,100851.66
2023-05-12T15:18:24.599Z,100852.16
2023-05-12T15:20:56.409Z,100855.89
2023-05-12T15:23:28.120Z,100850.75
2023-05-12T15:26:06.944Z,100846.84
2023-05-12T15:28:33.404Z,100847.08
2023-05-12T15:31:05.150Z,100846.94
2023-05-12T15:33:38.585Z,100849.88
2023-05-12T15:36:11.621Z,100850.44
2023-05-12T15:38:43.572Z,100846.16
2023-05-12T15:41:15.291Z,100840.83
2023-05-12T15:43:47.059Z,100842.39
2023-05-12T15:46:18.941Z,100838.41
2023-05-12T15:48:50.689Z,100837.03
2023-05-12T15:51:22.441Z,100839.24
2023-05-12T15:53:54.345Z,100844.09
2023-05-12T15:56:25.922Z,100845.66
2023-05-12T15:58:57.553Z,100848.75
2023-05-12T16:01:29.169Z,100847.89
2023-05-12T16:04:01.450Z,100849.66
2023-05-12T16:06:33.192Z,100845.03
2023-05-12T16:09:05.015Z,100846.45
2023-05-12T16:11:36.785Z,100844.75
2023-05-12T16:14:08.583Z,100845.84
2023-05-12T16:16:41.930Z,100844.14
2023-05-12T16:19:13.799Z,100837.66
2023-05-12T16:21:45.488Z,100838.05
2023-05-12T16:24:17.704Z,100844.29
2023-05-12T16:26:49.505Z,100850.53
2023-05-12T16:29:23.189Z,100849.22
2023-05-12T16:31:54.795Z,100855.45
2023-05-12T16:34:26.426Z,100850.14
2023-05-12T16:36:58.257Z,100851.04
2023-05-12T16:39:31.809Z,100856.19
2023-05-12T16:42:03.555Z,100860.52
2023-05-12T16:44:35.268Z,100859.02
2023-05-12T16:47:07.286Z,100862.98
2023-05-12T16:49:39.164Z,100865.44
2023-05-12T16:52:12.538Z,100865.09
2023-05-12T16:54:45.099Z,100862.53
2023-05-12T16:57:18.286Z,100862.73
2023-05-12T16:59:49.832Z,100871.19
2023-05-12T17:02:22.085Z,100869.13
2023-05-12T17:04:54.023Z,100870.70
2023-05-12T17:07:26.503Z,100874.98
2023-05-12T17:09:58.153Z,100873.98
2023-05-12T17:12:30.092Z,100877.78
2023-05-12T17:15:22.215Z,100877.75
2023-05-12T17:17:36.272Z,100878.44
2023-05-12T17:20:09.235Z,100884.98
2023-05-12T17:22:42.640Z,100880.87
2023-05-12T17:25:15.630Z,100883.27
2023-05-12T17:27:49.326Z,100885.69
2023-05-12T17:30:21.348Z,100891.86
2023-05-12T17:32:53.864Z,100893.08
2023-05-12T17:35:25.673Z,100894.25
2023-05-12T17:37:57.751Z,100893.93
2023-05-12T17:40:29.457Z,100893.23
2023-05-12T17:43:01.224Z,100900.61
2023-05-12T17:45:33.172Z,100897.33
2023-05-12T17:48:06.402Z,100896.83
2023-05-12T17:50:39.390Z,100900.25
2023-05-12T17:53:11.579Z,100902.46
2023-05-12T17:55:43.175Z,100904.50
2023-05-12T17:58:15.623Z,100905.17
2023-05-12T18:00:47.854Z,100908.55
2023-05-12T18:03:21.571Z,100903.04
2023-05-12T18:05:54.697Z,100905.08
2023-05-12T18:08:27.338Z,100910.22
2023-05-12T18:10:59.101Z,100910.34
2023-05-12T18:13:31.152Z,100914.62
2023-05-12T18:16:03.270Z,100907.74
2023-05-12T18:18:35.782Z,100916.62
2023-05-12T18:21:08.325Z,100920.57
2023-05-12T18:23:40.366Z,100914.20
2023-05-12T18:26:12.075Z,100915.55
2023-05-12T18:28:43.933Z,100908.33
2023-05-12T18:31:16.613Z,100916.75
2023-05-12T18:33:49.944Z,100918.63
2023-05-12T18:36:22.004Z,100919.84
2023-05-12T18:38:54.369Z,100924.80
2023-05-12T18:41:26.550Z,100933.02
2023-05-12T18:43:58.634Z,100937.34
2023-05-12T18:46:31.285Z,100943.98
2023-05-12T18:49:04.026Z,100940.19
2023-05-12T18:51:36.492Z,100944.84
2023-05-12T18:54:08.194Z,100943.62
2023-05-12T18:56:40.888Z,100944.63
2023-05-12T18:59:13.426Z,100946.00
2023-05-12T19:01:46.200Z,100948.58
2023-05-12T19:04:19.663Z,100949.80
2023-05-12T19:06:52.132Z,100953.08
2023-05-12T19:09:24.108Z,100952.20
2023-05-12T19:11:56.344Z,100959.37
2023-05-12T19:14:28.359Z,100962.78
2023-05-12T19:17:00.050Z,100958.48
2023-05-12T19:19:32.123Z,100955.41
2023-05-12T19:22:04.489Z,100960.71
2023-05-12T19:24:38.371Z,100962.75
2023-05-12T19:27:11.889Z,100962.03
2023-05-12T19:29:44.308Z,100954.81
2023-05-12T19:32:16.770Z,100952.99
2023-05-12T19:34:51.428Z,100952.08
2023-05-12T19:37:23.272Z,100947.38
2023-05-12T19:39:54.998Z,100943.90
2023-05-12T19:42:27.704Z,100944.16
2023-05-12T19:45:00.803Z,100953.70
2023-05-12T19:47:33.860Z,100960.12
2023-05-12T19:50:07.358Z,100959.33
2023-05-12T19:52:39.946Z,100952.91
2023-05-12T19:55:12.054Z,100941.02
2023-05-12T19:57:45.123Z,100947.45
2023-05-12T20:00:17.650Z,100938.64
2023-05-12T20:02:51.737Z,100941.15
2023-05-12T20:05:23.539Z,100943.44
2023-05-12T20:07:56.652Z,100944.77
2023-05-12T20:10:28.435Z,100943.66
2023-05-12T20:13:02.678Z,100941.87
2023-05-12T20:15:34.387Z,100937.73
2023-05-12T20:18:06.441Z,100939.40
2023-05-12T20:20:38.304Z,100935.25
2023-05-12T20:23:09.949Z,100937.56
2023-05-12T20:25:41.600Z,100938.40
2023-05-12T20:28:14.054Z,100943.83
2023-05-12T20:30:46.104Z,100944.97
2023-05-12T20:33:18.149Z,100951.76
2023-05-12T20:35:50.139Z,100946.59
2023-05-12T20:38:24.348Z,100954.75
2023-05-12T20:40:55.970Z,100948.84
2023-05-12T20:43:28.184Z,100942.98
2023-05-12T20:46:00.183Z,100938.45
2023-05-12T20:48:32.877Z,100942.85
2023-05-12T20:51:12.153Z,100944.17
2023-05-12T20:53:44.018Z,100947.34
2023-05-12T20:56:15.869Z,100947.44
2023-05-12T20:58:47.496Z,100955.59
2023-05-12T21:01:19.481Z,100960.13
2023-05-12T21:03:51.293Z,100959.70
2023-05-12T21:06:23.075Z,100962.91
2023-05-12T21:08:54.912Z,100957.98
2023-05-12T21:11:26.999Z,100964.75
2023-05-12T21:13:58.692Z,100960.85
2023-05-12T21:16:30.717Z,100962.02
2023-05-12T21:19:02.910Z,100962.97
2023-05-12T21:21:35.517Z,100957.66
2023-05-12T21:24:07.764Z,100966.48
2023-05-12T21:26:39.560Z,100960.09
2023-05-12T21:29:11.259Z,100961.53
2023-05-12T21:31:43.057Z,100963.05
2023-05-12T21:34:15.333Z,100956.99
2023-05-12T21:36:47.006Z,100955.56
2023-05-12T21:39:18.613Z,100955.84
2023-05-12T21:41:50.474Z,100957.14
2023-05-12T21:44:22.123Z,100958.59
2023-05-12T21:46:53.818Z,100962.48
2023-05-12T21:49:46.716Z,100958.28
2023-05-12T21:52:18.552Z,100961.95
2023-05-12T21:54:50.766Z,100959.86
2023-05-12T21:57:22.758Z,100960.14
2023-05-12T21:59:56.303Z,100960.56
2023-05-12T22:02:27.872Z,100956.75
2023-05-12T22:04:59.797Z,100956.54
2023-05-12T22:07:31.884Z,100964.17
2023-05-12T22:10:04.634Z,100957.09
2023-05-12T22:12:37.702Z,100961.47
2023-05-12T22:15:11.210Z,100961.78
2023-05-12T22:17:43.289Z,100951.77
2023-05-12T22:20:16.647Z,100953.41
2023-05-12T22:22:49.268Z,100950.61
2023-05-12T22:25:20.920Z,100956.07
2023-05-12T22:27:52.672Z,100954.60
2023-05-12T22:30:25.057Z,100960.33
2023-05-12T22:32:57.448Z,100960.75
2023-05-12T22:35:29.737Z,100966.75
2023-05-12T22:38:01.795Z,100964.58
2023-05-12T22:40:33.902Z,100959.66
2023-05-12T22:43:07.002Z,100961.08
2023-05-12T22:45:39.252Z,100958.63
2023-05-12T22:50:55.324Z,100961.14
2023-05-12T22:53:27.351Z,100956.09
2023-05-12T22:55:59.016Z,100967.55
2023-05-12T22:58:31.492Z,100966.72
2023-05-12T23:01:03.164Z,100965.27
2023-05-12T23:03:36.195Z,100970.28
2023-05-12T23:06:08.094Z,100965.37
2023-05-12T23:08:40.444Z,100969.23
2023-05-12T23:11:13.005Z,100971.35
2023-05-12T23:13:44.881Z,100970.39
2023-05-12T23:16:16.687Z,100962.26
2023-05-12T23:18:49.222Z,100964.89
2023-05-12T23:21:20.909Z,100962.56
2023-05-12T23:23:52.969Z,100958.61
2023-05-12T23:26:24.642Z,100957.87
2023-05-12T23:28:56.679Z,100965.69
2023-05-12T23:31:28.594Z,100969.03
2023-05-12T23:34:00.649Z,100964.59
2023-05-12T23:36:32.738Z,100964.85
2023-05-12T23:39:04.472Z,100968.48
2023-05-12T23:41:37.489Z,100963.79
2023-05-12T23:44:09.831Z,100962.69
2023-05-12T23:46:42.274Z,100968.63
2023-05-12T23:49:26.456Z,100966.42
2023-05-12T23:51:59.522Z,100965.45
2023-05-12T23:54:31.509Z,100977.19
2023-05-12T23:57:03.376Z,100977.44
2023-05-12T23:59:35.153Z,100975.63
